Pagrindinis puslapis
METAR-TAF:

METAR-TAF

Oro uostai :

Gadamesas, Libija

platuma: 30-08N, ilguma: 009-30E, Aukštis: 346 m

METAR: trūkstamas

Laikas: 16:37 (14:37 UTC)

Prognozė

Ataskaita buvo paskelbta 21 valandos ir 37 minutes, ne 17:00 UTC
Prognozė galioja nuo 24 metu 18 UTC su 25 metu 03 UTC
Vėjas 15 kt iš Vakarų
Matomumas: 6000 m
Tapsmas
nuo 24 metu 22 UTC su 24 metu 24 UTC
Vėjas 15 kt iš Vakarų/Šiaurės Vakarų su gūsio iki 25 kt
Matomumas: 8000 m

TAF: HLTD 241700Z 2418/2503 27015KT 6000 NSC BECMG 2422/2424 30015G25KT 8000 NSC

Orai ataskaitas ir orų prognozės (METAR, TAF).

turimą stotys yra geltonos ir raudonos taškus žemėlapyje.

Perkelti pele per norėdami pamatyti stoties vardą.

Tada spustelėkite, norėdami matyti oro stebėjimo ir prognozės.

Norėdami pakeisti žemėlapį: spustelėkite ant žalios mygtukų su juodo kryžiaus žemyn,; žalią mygtuką su brūkšneliu, jei norite nutolinti; arba žalių rodyklių gretimoms žemėlapius.


METAR-TAF: